createdAt,value
2022-11-21T00:00:11.125Z,2.86
2022-11-21T00:01:11.155Z,2.38
2022-11-21T00:02:11.231Z,2.74
2022-11-21T00:03:11.140Z,3.14
2022-11-21T00:04:11.183Z,3.14
2022-11-21T00:05:11.117Z,2.64
2022-11-21T00:06:11.215Z,2.57
2022-11-21T00:07:11.186Z,3.06
2022-11-21T00:08:11.129Z,2.74
2022-11-21T00:09:11.133Z,2.58
2022-11-21T00:10:11.140Z,2.84
2022-11-21T00:11:11.127Z,2.81
2022-11-21T00:12:11.161Z,2.96
2022-11-21T00:13:11.135Z,3.19
2022-11-21T00:14:11.129Z,3.31
2022-11-21T00:15:11.146Z,3.38
2022-11-21T00:16:11.124Z,2.99
2022-11-21T00:17:11.148Z,2.88
2022-11-21T00:18:11.126Z,3.05
2022-11-21T00:19:11.138Z,3.39
2022-11-21T00:20:11.143Z,3.41
2022-11-21T00:21:11.128Z,3.38
2022-11-21T00:22:11.144Z,3.38
2022-11-21T00:23:11.118Z,3.31
2022-11-21T00:24:11.136Z,3.31
2022-11-21T00:25:11.128Z,3.41
2022-11-21T00:26:11.151Z,3.39
2022-11-21T00:27:11.157Z,3.27
2022-11-21T00:28:11.133Z,3.11
2022-11-21T00:29:11.134Z,2.89
2022-11-21T00:30:11.116Z,3.3
2022-11-21T00:31:11.215Z,3.15
2022-11-21T00:32:11.146Z,3.17
2022-11-21T00:33:11.135Z,3.27
2022-11-21T00:34:11.164Z,3.07
2022-11-21T00:35:11.130Z,3.11
2022-11-21T00:36:11.145Z,2.77
2022-11-21T00:37:11.234Z,3.16
2022-11-21T00:38:11.141Z,3.37
2022-11-21T00:39:11.137Z,3.41
2022-11-21T00:40:11.131Z,3.35
2022-11-21T00:41:11.130Z,3.13
2022-11-21T00:42:11.146Z,3.37
2022-11-21T00:43:11.143Z,3.62
2022-11-21T00:44:11.137Z,3.37
2022-11-21T00:45:11.163Z,3.42
2022-11-21T00:46:11.131Z,3.37
2022-11-21T00:47:11.158Z,3.2
2022-11-21T00:48:11.132Z,3.31
2022-11-21T00:49:11.135Z,3.13
2022-11-21T00:50:11.160Z,3.49
2022-11-21T00:51:11.132Z,3.57
2022-11-21T00:52:11.309Z,3.5
2022-11-21T00:53:11.130Z,3.44
2022-11-21T00:54:11.140Z,3.44
2022-11-21T00:55:11.135Z,3.46
2022-11-21T00:56:11.130Z,3.56
2022-11-21T00:57:11.147Z,3.69
2022-11-21T00:58:11.129Z,3.67
2022-11-21T00:59:11.131Z,3.53
2022-11-21T01:00:11.133Z,3.53
2022-11-21T01:01:11.250Z,3.49
2022-11-21T01:02:11.151Z,3.4
2022-11-21T01:03:11.132Z,3.49
2022-11-21T01:04:11.136Z,3.54
2022-11-21T01:05:11.145Z,3.49
2022-11-21T01:06:11.140Z,3.55
2022-11-21T01:07:11.185Z,3.59
2022-11-21T01:08:11.181Z,3.45
2022-11-21T01:09:11.135Z,3.69
2022-11-21T01:10:11.148Z,3.55
2022-11-21T01:11:11.122Z,3.55
2022-11-21T01:12:11.145Z,3.49
2022-11-21T01:13:11.125Z,3.49
2022-11-21T01:14:11.122Z,3.4
2022-11-21T01:15:11.139Z,4.13
2022-11-21T01:16:11.133Z,3.84
2022-11-21T01:17:11.141Z,3.87
2022-11-21T01:18:11.119Z,3.82
2022-11-21T01:19:11.149Z,3.37
2022-11-21T01:20:11.141Z,3.55
2022-11-21T01:21:11.134Z,3.67
2022-11-21T01:22:11.144Z,3.51
2022-11-21T01:23:11.134Z,3.36
2022-11-21T01:24:11.126Z,3.5
2022-11-21T01:25:11.118Z,3.47
2022-11-21T01:26:11.128Z,3.92
2022-11-21T01:27:11.150Z,3.42
2022-11-21T01:28:11.125Z,3.49
2022-11-21T01:29:11.141Z,3.68
2022-11-21T01:30:11.121Z,3.85
2022-11-21T01:31:11.147Z,3.66
2022-11-21T01:32:11.141Z,3.22
2022-11-21T01:33:11.131Z,3.24
2022-11-21T01:34:11.134Z,3.54
2022-11-21T01:35:11.140Z,3.38
2022-11-21T01:36:11.142Z,3.91
2022-11-21T01:37:11.148Z,3.87
2022-11-21T01:38:11.135Z,3.95
2022-11-21T01:39:11.141Z,3.75
2022-11-21T01:40:11.138Z,3.96
2022-11-21T01:41:11.169Z,3.63
2022-11-21T01:42:11.147Z,3.45
2022-11-21T01:43:11.142Z,3.25
2022-11-21T01:44:11.134Z,3.5
2022-11-21T01:45:11.149Z,3.53
2022-11-21T01:46:11.134Z,3.43
2022-11-21T01:47:11.147Z,3.79
2022-11-21T01:48:11.125Z,3.81
2022-11-21T01:49:11.130Z,3.74
2022-11-21T01:50:13.121Z,3.87
2022-11-21T01:51:11.163Z,3.31
2022-11-21T01:52:11.148Z,3.63
2022-11-21T01:53:11.132Z,3.63
2022-11-21T01:54:11.138Z,3.43
2022-11-21T01:55:11.137Z,3.66
2022-11-21T01:56:11.133Z,3.42
2022-11-21T01:57:11.137Z,3.53
2022-11-21T01:58:11.143Z,3.69
2022-11-21T01:59:11.138Z,3.29
2022-11-21T02:00:11.123Z,3.41
2022-11-21T02:01:11.193Z,3.38
2022-11-21T02:02:11.153Z,3.41
2022-11-21T02:03:11.129Z,3.53
2022-11-21T02:04:11.145Z,3.53
2022-11-21T02:05:11.135Z,3.62
2022-11-21T02:06:11.145Z,3.63
2022-11-21T02:07:11.215Z,3.7
2022-11-21T02:08:11.133Z,3.74
2022-11-21T02:09:11.133Z,3.74
2022-11-21T02:10:11.147Z,3.74
2022-11-21T02:11:11.138Z,3.74
2022-11-21T02:12:11.149Z,3.67
2022-11-21T02:13:11.142Z,3.45
2022-11-21T02:14:11.141Z,3.63
2022-11-21T02:15:11.135Z,3.48
2022-11-21T02:16:11.143Z,3.48
2022-11-21T02:17:11.164Z,3.48
2022-11-21T02:18:11.134Z,3.48
2022-11-21T02:19:11.148Z,3.48
2022-11-21T02:20:11.133Z,3.48
2022-11-21T02:21:11.117Z,3.48
2022-11-21T02:22:11.150Z,3.48
2022-11-21T02:23:11.116Z,3.48
2022-11-21T02:24:11.119Z,3.48
2022-11-21T02:25:11.139Z,3.48
2022-11-21T02:26:11.139Z,3.48
2022-11-21T02:27:11.142Z,3.48
2022-11-21T02:28:11.140Z,3.48
2022-11-21T02:29:11.127Z,3.48
2022-11-21T02:30:11.118Z,3.48
2022-11-21T02:31:11.139Z,3.48
2022-11-21T02:32:11.146Z,3.48
2022-11-21T02:33:11.130Z,3.48
2022-11-21T02:34:11.114Z,3.48
2022-11-21T02:35:11.129Z,3.86
2022-11-21T02:36:11.121Z,4.1
2022-11-21T02:37:11.132Z,4.28
2022-11-21T02:38:11.126Z,4.26
2022-11-21T02:39:11.130Z,4.26
2022-11-21T02:40:11.135Z,4.48
2022-11-21T02:41:11.132Z,4.22
2022-11-21T02:42:11.148Z,4.39
2022-11-21T02:43:11.149Z,4.71
2022-11-21T02:44:11.136Z,4.46
2022-11-21T02:45:11.141Z,4.4
2022-11-21T02:46:11.156Z,4.4
2022-11-21T02:47:11.148Z,4.26
2022-11-21T02:48:11.123Z,4.17
2022-11-21T02:49:11.145Z,3.73
2022-11-21T02:50:11.126Z,4.08
2022-11-21T02:51:11.130Z,4.08
2022-11-21T02:52:11.154Z,4.18
2022-11-21T02:53:11.133Z,4.15
2022-11-21T02:54:11.149Z,3.98
2022-11-21T02:55:11.137Z,3.98
2022-11-21T02:56:11.143Z,3.98
2022-11-21T02:57:11.143Z,3.98
2022-11-21T02:58:11.140Z,3.98
2022-11-21T02:59:11.145Z,3.98
2022-11-21T03:00:11.126Z,3.98
2022-11-21T03:01:11.165Z,3.98
2022-11-21T03:02:11.147Z,3.98
2022-11-21T03:03:11.126Z,3.98
2022-11-21T03:04:11.137Z,3.98
2022-11-21T03:05:11.128Z,3.98
2022-11-21T03:06:11.144Z,3.98
2022-11-21T03:07:11.174Z,3.98
2022-11-21T03:08:11.144Z,3.98
2022-11-21T03:09:11.128Z,3.98
2022-11-21T03:10:11.120Z,3.98
2022-11-21T03:11:11.136Z,3.98
2022-11-21T03:12:11.140Z,3.98
2022-11-21T03:13:11.148Z,3.98
2022-11-21T03:14:11.128Z,3.98
2022-11-21T03:15:11.128Z,3.98
2022-11-21T03:16:11.131Z,3.98
2022-11-21T03:17:11.145Z,3.98
2022-11-21T03:18:11.159Z,3.98
2022-11-21T03:19:11.126Z,3.98
2022-11-21T03:20:11.128Z,3.98
2022-11-21T03:21:11.123Z,3.98
2022-11-21T03:22:11.144Z,3.98
2022-11-21T03:23:11.132Z,3.98
2022-11-21T03:24:11.130Z,3.98
2022-11-21T03:25:11.125Z,3.98
2022-11-21T03:26:11.138Z,3.98
2022-11-21T03:27:11.144Z,3.98
2022-11-21T03:28:11.117Z,3.98
2022-11-21T03:29:11.134Z,3.98
2022-11-21T03:30:11.129Z,3.98
2022-11-21T03:31:11.137Z,3.98
2022-11-21T03:32:11.144Z,3.98
2022-11-21T03:33:11.128Z,3.98
2022-11-21T03:34:11.128Z,3.98
2022-11-21T03:35:11.131Z,3.98
2022-11-21T03:36:11.128Z,3.98
2022-11-21T03:37:11.135Z,3.98
2022-11-21T03:38:11.139Z,3.98
2022-11-21T03:39:11.115Z,3.98
2022-11-21T03:40:11.130Z,3.98
2022-11-21T03:41:11.134Z,3.98
2022-11-21T03:42:11.125Z,3.98
2022-11-21T03:43:11.117Z,3.98
2022-11-21T03:44:11.112Z,3.98
2022-11-21T03:45:11.122Z,3.98
2022-11-21T03:46:11.121Z,3.98
2022-11-21T03:47:11.146Z,3.98
2022-11-21T03:48:11.131Z,3.98
2022-11-21T03:49:11.125Z,3.98
2022-11-21T03:50:11.128Z,3.98
2022-11-21T03:51:11.110Z,3.98
2022-11-21T03:52:11.157Z,3.98
2022-11-21T03:53:11.128Z,3.98
2022-11-21T03:54:11.130Z,3.98
2022-11-21T03:55:11.136Z,3.98
2022-11-21T03:56:11.132Z,3.98
2022-11-21T03:57:11.145Z,3.98
2022-11-21T03:58:11.121Z,3.98
2022-11-21T03:59:11.133Z,3.98
2022-11-21T04:00:11.133Z,3.98
2022-11-21T04:01:11.180Z,3.98
2022-11-21T04:02:11.139Z,3.98
2022-11-21T04:03:11.115Z,3.98
2022-11-21T04:04:11.128Z,3.98
2022-11-21T04:05:11.136Z,3.98
2022-11-21T04:06:11.137Z,3.98
2022-11-21T04:07:11.176Z,3.98
2022-11-21T04:08:11.124Z,3.98
2022-11-21T04:09:11.125Z,3.98
2022-11-21T04:10:11.140Z,3.98
2022-11-21T04:11:11.135Z,3.98
2022-11-21T04:12:11.146Z,3.98
2022-11-21T04:13:11.151Z,3.98
2022-11-21T04:14:11.132Z,3.98
2022-11-21T04:15:13.973Z,3.98
2022-11-21T04:16:11.132Z,3.98
2022-11-21T04:17:11.142Z,3.98
2022-11-21T04:18:11.124Z,3.98
2022-11-21T04:19:11.152Z,3.98
2022-11-21T04:20:11.132Z,3.98
2022-11-21T04:21:11.130Z,3.98
2022-11-21T04:22:11.148Z,3.98
2022-11-21T04:23:11.125Z,3.98
2022-11-21T04:24:11.135Z,3.98
2022-11-21T04:25:11.148Z,3.98
2022-11-21T04:26:11.129Z,3.98
2022-11-21T04:27:11.145Z,3.98
2022-11-21T04:28:11.130Z,3.98
2022-11-21T04:29:11.131Z,3.98
2022-11-21T04:30:11.121Z,3.98
2022-11-21T04:31:11.606Z,3.98
2022-11-21T04:32:11.141Z,3.98
2022-11-21T04:33:11.146Z,3.98
2022-11-21T04:34:11.126Z,3.98
2022-11-21T04:35:11.147Z,3.98
2022-11-21T04:36:11.151Z,3.98
2022-11-21T04:37:11.899Z,3.98
2022-11-21T04:38:11.142Z,3.98
2022-11-21T04:39:11.132Z,3.98
2022-11-21T04:40:11.142Z,3.98
2022-11-21T04:41:11.133Z,3.98
2022-11-21T04:42:11.144Z,3.98
2022-11-21T04:43:11.151Z,3.98
2022-11-21T04:44:11.127Z,3.98
2022-11-21T04:45:11.139Z,3.98
2022-11-21T04:46:11.127Z,3.98
2022-11-21T04:47:11.144Z,3.98
2022-11-21T04:48:11.194Z,3.98
2022-11-21T04:49:11.136Z,3.98
2022-11-21T04:50:11.129Z,3.98
2022-11-21T04:51:11.131Z,3.98
2022-11-21T04:52:11.288Z,3.98
2022-11-21T04:53:11.127Z,3.98
2022-11-21T04:54:11.140Z,3.98
2022-11-21T04:55:11.146Z,3.98
2022-11-21T04:56:11.128Z,3.98
2022-11-21T04:57:11.159Z,3.98
2022-11-21T04:58:11.119Z,3.98
2022-11-21T04:59:11.134Z,3.98
2022-11-21T05:00:11.137Z,3.98
2022-11-21T05:01:11.172Z,3.98
2022-11-21T05:02:11.145Z,3.98
2022-11-21T05:03:11.148Z,3.98
2022-11-21T05:04:11.127Z,3.98
2022-11-21T05:05:11.138Z,3.98
2022-11-21T05:06:11.127Z,3.98
2022-11-21T05:07:11.263Z,3.98
2022-11-21T05:08:11.129Z,3.98
2022-11-21T05:09:11.137Z,3.98
2022-11-21T05:10:11.127Z,3.98
2022-11-21T05:11:11.129Z,3.98
2022-11-21T05:12:11.145Z,3.98
2022-11-21T05:13:11.208Z,3.98
2022-11-21T05:14:11.145Z,3.98
2022-11-21T05:15:11.137Z,3.98
2022-11-21T05:16:11.149Z,3.98
2022-11-21T05:17:11.148Z,3.98
2022-11-21T05:18:11.129Z,3.98
2022-11-21T05:19:11.213Z,3.98
2022-11-21T05:20:11.133Z,3.98
2022-11-21T05:21:11.142Z,3.98
2022-11-21T05:22:11.141Z,3.98
2022-11-21T05:23:11.140Z,3.98
2022-11-21T05:24:11.148Z,3.98
2022-11-21T05:25:11.128Z,5.08
2022-11-21T05:26:11.145Z,4.6
2022-11-21T05:27:11.143Z,4.6
2022-11-21T05:28:11.134Z,4.6
2022-11-21T05:29:11.128Z,4.6
2022-11-21T05:30:11.131Z,4.9
2022-11-21T05:31:11.139Z,4.9
2022-11-21T05:32:11.140Z,4.9
2022-11-21T05:33:11.127Z,4.9
2022-11-21T05:34:11.152Z,4.9
2022-11-21T05:35:11.136Z,4.9
2022-11-21T05:36:11.136Z,4.88
2022-11-21T05:37:11.149Z,4.69
2022-11-21T05:38:11.166Z,4.72
2022-11-21T05:39:11.134Z,4.72
2022-11-21T05:40:11.123Z,4.72
2022-11-21T05:41:11.135Z,4.72
2022-11-21T05:42:11.146Z,4.72
2022-11-21T05:43:11.171Z,4.72
2022-11-21T05:44:11.121Z,4.72
2022-11-21T05:45:11.144Z,5.01
2022-11-21T05:46:11.133Z,4.97
2022-11-21T05:47:11.152Z,4.94
2022-11-21T05:48:11.135Z,5.07
2022-11-21T05:49:11.148Z,5.08
2022-11-21T05:50:11.230Z,5.08
2022-11-21T05:51:11.138Z,5.17
2022-11-21T05:52:11.149Z,5.1
2022-11-21T05:53:11.147Z,5.1
2022-11-21T05:54:11.146Z,4.87
2022-11-21T05:55:11.146Z,4.88
2022-11-21T05:56:11.119Z,4.95
2022-11-21T05:57:11.150Z,4.95
2022-11-21T05:58:11.128Z,5.09
2022-11-21T05:59:11.125Z,5.07
2022-11-21T06:00:11.117Z,5.27
2022-11-21T06:01:11.138Z,5.17
2022-11-21T06:02:11.144Z,4.95
2022-11-21T06:03:11.204Z,5.16
2022-11-21T06:04:11.144Z,5.26
2022-11-21T06:05:11.124Z,5.3
2022-11-21T06:06:11.125Z,5.3
2022-11-21T06:07:11.244Z,5.4
2022-11-21T06:08:11.132Z,5.52
2022-11-21T06:09:11.141Z,5.44
2022-11-21T06:10:11.122Z,5.55
2022-11-21T06:11:11.115Z,5.74
2022-11-21T06:12:11.147Z,5.6
2022-11-21T06:13:11.141Z,5.67
2022-11-21T06:14:11.127Z,5.77
2022-11-21T06:15:11.152Z,5.68
2022-11-21T06:16:11.129Z,5.47
2022-11-21T06:17:11.160Z,5.14
2022-11-21T06:18:11.133Z,5.13
2022-11-21T06:19:11.160Z,5.24
2022-11-21T06:20:11.124Z,5.51
2022-11-21T06:21:11.126Z,5.63
2022-11-21T06:22:11.147Z,5.53
2022-11-21T06:23:11.127Z,5.52
2022-11-21T06:24:11.133Z,5.56
2022-11-21T06:25:11.145Z,5.56
2022-11-21T06:26:11.126Z,5.56
2022-11-21T06:27:11.153Z,5.57
2022-11-21T06:28:11.142Z,5.76
2022-11-21T06:29:11.139Z,5.69
2022-11-21T06:30:11.113Z,5.73
2022-11-21T06:31:11.130Z,6.02
2022-11-21T06:32:11.149Z,5.71
2022-11-21T06:33:11.125Z,5.63
2022-11-21T06:34:11.142Z,5.41
2022-11-21T06:35:11.133Z,5.71
2022-11-21T06:36:11.143Z,5.69
2022-11-21T06:37:11.149Z,5.57
2022-11-21T06:38:11.136Z,5.58
2022-11-21T06:39:11.132Z,5.7
2022-11-21T06:40:11.115Z,5.75
2022-11-21T06:41:11.127Z,5.96
2022-11-21T06:42:11.149Z,5.76
2022-11-21T06:43:11.147Z,5.82
2022-11-21T06:44:11.128Z,5.7
2022-11-21T06:45:11.132Z,5.73
2022-11-21T06:46:11.142Z,5.71
2022-11-21T06:47:11.147Z,5.62
2022-11-21T06:48:11.144Z,5.69
2022-11-21T06:49:11.136Z,5.39
2022-11-21T06:50:11.125Z,5.39
2022-11-21T06:51:11.139Z,5.59
2022-11-21T06:52:11.148Z,5.7
2022-11-21T06:53:11.125Z,5.83
2022-11-21T06:54:16.343Z,5.81
2022-11-21T06:55:11.125Z,5.81
2022-11-21T06:56:11.140Z,5.7
2022-11-21T06:57:11.159Z,5.93
2022-11-21T06:58:11.145Z,5.93
2022-11-21T06:59:11.134Z,5.81
2022-11-21T07:00:11.135Z,5.51
2022-11-21T07:01:11.203Z,5.79
2022-11-21T07:02:11.148Z,5.83
2022-11-21T07:03:11.114Z,5.68
2022-11-21T07:04:11.138Z,5.8
2022-11-21T07:05:11.121Z,6.06
2022-11-21T07:06:11.121Z,5.89
2022-11-21T07:07:11.169Z,5.9
2022-11-21T07:08:13.462Z,5.9
2022-11-21T07:09:32.335Z,5.59
2022-11-21T07:10:11.122Z,5.78
2022-11-21T07:11:24.716Z,5.78
2022-11-21T07:12:11.142Z,5.78
2022-11-21T07:13:11.133Z,6.12
2022-11-21T07:14:11.129Z,6.29
2022-11-21T07:15:11.114Z,6.29
2022-11-21T07:16:11.132Z,6.56
2022-11-21T07:17:11.147Z,6.61
2022-11-21T07:18:11.121Z,6.61
2022-11-21T07:19:11.148Z,6.44
2022-11-21T07:20:11.115Z,6.17
2022-11-21T07:21:11.128Z,6.14
2022-11-21T07:22:11.158Z,6.04
2022-11-21T07:23:11.141Z,6.14
2022-11-21T07:24:11.131Z,6.31
2022-11-21T07:25:11.139Z,6.07
2022-11-21T07:26:11.130Z,6.02
2022-11-21T07:27:11.148Z,6.07
2022-11-21T07:28:11.127Z,6.08
2022-11-21T07:29:11.158Z,6.12
2022-11-21T07:30:11.125Z,6.31
2022-11-21T07:31:13.878Z,6.27
2022-11-21T07:32:11.149Z,6.41
2022-11-21T07:33:11.140Z,6.49
2022-11-21T07:34:11.136Z,6.56
2022-11-21T07:35:11.138Z,6.35
2022-11-21T07:36:11.145Z,6.24
2022-11-21T07:37:11.143Z,6.19
2022-11-21T07:38:11.147Z,6.35
2022-11-21T07:39:11.151Z,6.61
2022-11-21T07:40:11.115Z,6.6
2022-11-21T07:41:11.143Z,6.65
2022-11-21T07:42:11.146Z,6.77
2022-11-21T07:43:11.255Z,6.63
2022-11-21T07:44:11.131Z,6.63
2022-11-21T07:45:11.139Z,6.69
2022-11-21T07:46:11.140Z,6.93
2022-11-21T07:47:11.144Z,7
2022-11-21T07:48:11.130Z,7.11
2022-11-21T07:49:11.128Z,6.86
2022-11-21T07:50:11.123Z,6.84
2022-11-21T07:51:11.149Z,6.95
2022-11-21T07:52:11.150Z,6.72
2022-11-21T07:53:11.132Z,6.85
2022-11-21T07:54:11.145Z,6.88
2022-11-21T07:55:11.137Z,7.1
2022-11-21T07:56:11.150Z,6.68
2022-11-21T07:57:11.149Z,6.44
2022-11-21T07:58:11.134Z,6.43
2022-11-21T07:59:11.135Z,6.51
2022-11-21T08:00:11.123Z,6.51
2022-11-21T08:01:11.187Z,6.88
2022-11-21T08:02:11.196Z,7.12
2022-11-21T08:03:11.132Z,7.22
2022-11-21T08:04:11.136Z,7.27
2022-11-21T08:05:11.136Z,7.35
2022-11-21T08:06:11.142Z,7.43
2022-11-21T08:07:11.189Z,7.36
2022-11-21T08:08:11.131Z,7.32
2022-11-21T08:09:11.128Z,7.32
2022-11-21T08:10:11.121Z,7.16
2022-11-21T08:11:11.132Z,7.03
2022-11-21T08:12:11.144Z,6.75
2022-11-21T08:13:11.123Z,6.49
2022-11-21T08:14:11.121Z,6.44
2022-11-21T08:15:11.131Z,6.44
2022-11-21T08:16:11.121Z,6.33
2022-11-21T08:17:11.155Z,6.45
2022-11-21T08:18:11.116Z,6.42
2022-11-21T08:19:11.188Z,6.59
2022-11-21T08:20:11.132Z,6.37
2022-11-21T08:21:14.548Z,6.2
2022-11-21T08:22:11.138Z,5.81
2022-11-21T08:23:11.134Z,6.26
2022-11-21T08:24:11.135Z,6.4
2022-11-21T08:25:11.131Z,6.51
2022-11-21T08:26:11.162Z,6.48
2022-11-21T08:27:11.205Z,6.56
2022-11-21T08:28:11.123Z,6.28
2022-11-21T08:29:11.144Z,6.18
2022-11-21T08:30:11.122Z,6.12
2022-11-21T08:31:11.134Z,6.05
2022-11-21T08:32:11.149Z,5.86
2022-11-21T08:33:11.137Z,6.18
2022-11-21T08:34:14.470Z,6.1
2022-11-21T08:35:11.143Z,6.02
2022-11-21T08:36:11.143Z,5.84
2022-11-21T08:37:11.149Z,5.62
2022-11-21T08:38:11.131Z,5.77
2022-11-21T08:39:11.139Z,5.85
2022-11-21T08:40:11.123Z,5.93
2022-11-21T08:41:16.087Z,6.04
2022-11-21T08:42:11.159Z,6.03
2022-11-21T08:43:11.133Z,6.14
2022-11-21T08:44:13.820Z,6.14
2022-11-21T08:45:11.151Z,5.87
2022-11-21T08:46:11.135Z,5.57
2022-11-21T08:47:11.154Z,5.76
2022-11-21T08:48:11.137Z,5.76
2022-11-21T08:49:11.132Z,5.57
2022-11-21T08:50:11.120Z,5.5
2022-11-21T08:51:11.132Z,5.57
2022-11-21T08:52:11.154Z,5.56
2022-11-21T08:53:11.134Z,5.55
2022-11-21T08:54:11.147Z,5.45
2022-11-21T08:55:11.143Z,5.64
2022-11-21T08:56:11.140Z,5.78
2022-11-21T08:57:11.151Z,5.9
2022-11-21T08:58:11.126Z,5.71
2022-11-21T08:59:11.148Z,5.72
2022-11-21T09:00:11.140Z,5.82
2022-11-21T09:01:11.133Z,5.94
2022-11-21T09:02:11.191Z,5.88
2022-11-21T09:03:11.156Z,5.54
2022-11-21T09:04:11.128Z,5.69
2022-11-21T09:05:11.131Z,5.52
2022-11-21T09:06:11.147Z,5.55
2022-11-21T09:07:11.244Z,5.59
2022-11-21T09:08:11.146Z,5.59
2022-11-21T09:09:11.136Z,5.71
2022-11-21T09:10:11.120Z,5.71
2022-11-21T09:11:11.131Z,5.66
2022-11-21T09:12:11.150Z,5.66
2022-11-21T09:13:11.132Z,5.69
2022-11-21T09:14:11.129Z,5.6
2022-11-21T09:15:11.131Z,5.76
2022-11-21T09:16:11.136Z,5.86
2022-11-21T09:17:11.145Z,5.78
2022-11-21T09:18:11.152Z,5.48
2022-11-21T09:19:11.124Z,5.57
2022-11-21T09:20:11.160Z,5.57
2022-11-21T09:21:11.142Z,5.4
2022-11-21T09:22:11.146Z,5.28
2022-11-21T09:23:11.122Z,5.3
2022-11-21T09:24:11.136Z,5.42
2022-11-21T09:25:11.152Z,5.43
2022-11-21T09:26:11.136Z,5.37
2022-11-21T09:27:11.135Z,5.42
2022-11-21T09:28:11.122Z,5.34
2022-11-21T09:29:11.124Z,5.12
2022-11-21T09:30:11.133Z,5.09
2022-11-21T09:31:11.130Z,5.09
2022-11-21T09:32:11.149Z,5.01
2022-11-21T09:33:11.133Z,4.95
2022-11-21T09:34:11.120Z,5.07
2022-11-21T09:35:11.132Z,5.02
2022-11-21T09:36:11.131Z,5.02
2022-11-21T09:37:11.146Z,5.12
2022-11-21T09:38:11.119Z,5.19
2022-11-21T09:39:11.144Z,4.91
2022-11-21T09:40:11.133Z,4.91
2022-11-21T09:41:11.129Z,5.08
2022-11-21T09:42:11.147Z,5.59
2022-11-21T09:43:11.127Z,4.87
2022-11-21T09:44:11.134Z,5.02
2022-11-21T09:45:11.139Z,4.89
2022-11-21T09:46:11.134Z,4.87
2022-11-21T09:47:11.150Z,4.86
2022-11-21T09:48:11.137Z,4.8
2022-11-21T09:49:11.144Z,4.82
2022-11-21T09:50:11.123Z,4.69
2022-11-21T09:51:11.133Z,4.85
2022-11-21T09:52:16.953Z,4.95
2022-11-21T09:53:15.754Z,4.69
2022-11-21T09:54:15.757Z,4.55
2022-11-21T09:55:15.748Z,4.58
2022-11-21T09:56:15.751Z,4.68
2022-11-21T09:57:15.752Z,4.54
2022-11-21T09:58:15.748Z,4.41
2022-11-21T09:59:15.741Z,4.51
2022-11-21T10:00:15.763Z,4.36
2022-11-21T10:01:15.795Z,4.28
2022-11-21T10:02:15.739Z,4.39
2022-11-21T10:03:20.890Z,4.11
2022-11-21T10:04:15.741Z,4.1
2022-11-21T10:05:15.737Z,4.08
2022-11-21T10:06:15.738Z,4.18
2022-11-21T10:07:15.813Z,4.16
2022-11-21T10:08:15.759Z,4.15
2022-11-21T10:09:15.748Z,4.12
2022-11-21T10:10:15.747Z,4.21
2022-11-21T10:11:19.671Z,4.42
2022-11-21T10:12:15.738Z,4.32
2022-11-21T10:13:15.763Z,4.51
2022-11-21T10:14:15.734Z,4.26
2022-11-21T10:15:15.745Z,4.02
2022-11-21T10:16:15.743Z,4.06
2022-11-21T10:17:15.744Z,4.32
2022-11-21T10:18:15.764Z,4.17
2022-11-21T10:19:15.748Z,4.06
2022-11-21T10:20:15.739Z,4.06
2022-11-21T10:21:15.737Z,3.7
2022-11-21T10:22:15.758Z,3.88
2022-11-21T10:23:15.749Z,3.97
2022-11-21T10:24:15.739Z,3.73
2022-11-21T10:25:15.748Z,3.51
2022-11-21T10:26:15.735Z,3.55
2022-11-21T10:27:15.728Z,3.54
2022-11-21T10:28:15.749Z,3.3
2022-11-21T10:29:15.725Z,3.19
2022-11-21T10:30:15.731Z,3.19
2022-11-21T10:31:15.745Z,3.22
2022-11-21T10:32:15.736Z,3.22
2022-11-21T10:33:15.741Z,3.22
2022-11-21T10:34:15.723Z,3.22
2022-11-21T10:35:15.722Z,3.22
2022-11-21T10:36:15.728Z,3.22
2022-11-21T10:37:15.730Z,3.22
2022-11-21T10:38:15.733Z,3.22
2022-11-21T10:39:15.716Z,3.5
2022-11-21T10:40:15.766Z,3.25
2022-11-21T10:41:15.731Z,3.39
2022-11-21T10:42:19.118Z,3.39
2022-11-21T10:43:15.755Z,3.59
2022-11-21T10:44:15.723Z,3.59
2022-11-21T10:45:15.721Z,3.53
2022-11-21T10:46:15.738Z,3.53
2022-11-21T10:47:15.746Z,3.7
2022-11-21T10:48:15.739Z,3.67
2022-11-21T10:49:15.721Z,3.74
2022-11-21T10:50:15.726Z,3.54
2022-11-21T10:51:15.721Z,3.69
2022-11-21T10:52:15.720Z,3.77
2022-11-21T10:53:15.731Z,3.79
2022-11-21T10:54:15.731Z,3.86
2022-11-21T10:55:15.716Z,4.11
2022-11-21T10:56:15.724Z,4.04
2022-11-21T10:57:15.731Z,4.08
2022-11-21T10:58:15.747Z,4.02
2022-11-21T10:59:15.737Z,3.99
2022-11-21T11:00:15.722Z,4.15
2022-11-21T11:01:15.783Z,3.77
2022-11-21T11:02:15.731Z,3.82
2022-11-21T11:03:15.746Z,3.87
2022-11-21T11:05:15.738Z,3.78
2022-11-21T11:06:15.753Z,3.87
2022-11-21T11:07:15.780Z,4.08
2022-11-21T11:08:15.749Z,3.94
2022-11-21T11:09:15.737Z,4.22
2022-11-21T11:10:15.731Z,4.09
2022-11-21T11:11:15.741Z,4.02
2022-11-21T11:12:15.748Z,3.73
2022-11-21T11:13:44.532Z,3.61
2022-11-21T11:14:15.728Z,3.61
2022-11-21T11:15:15.756Z,3.7
2022-11-21T11:16:15.736Z,4.01
2022-11-21T11:17:15.737Z,4
2022-11-21T11:18:15.832Z,3.82
2022-11-21T11:19:15.739Z,3.77
2022-11-21T11:20:15.785Z,4.1
2022-11-21T11:21:15.734Z,3.84
2022-11-21T11:22:15.734Z,3.79
2022-11-21T11:23:15.748Z,4.02
2022-11-21T11:24:15.827Z,4.13
2022-11-21T11:25:15.736Z,3.87
2022-11-21T11:26:15.729Z,3.56
2022-11-21T11:27:15.733Z,3.6
2022-11-21T11:28:15.746Z,3.72
2022-11-21T11:29:15.729Z,3.84
2022-11-21T11:30:15.859Z,3.84
2022-11-21T11:31:15.736Z,4.15
2022-11-21T11:32:20.877Z,4.28
2022-11-21T11:33:15.740Z,4.25
2022-11-21T11:34:15.752Z,4.25
2022-11-21T11:35:15.733Z,3.84
2022-11-21T11:36:15.737Z,3.86
2022-11-21T11:37:15.734Z,3.86
2022-11-21T11:38:15.744Z,3.76
2022-11-21T11:39:15.740Z,3.79
2022-11-21T11:40:15.743Z,4.13
2022-11-21T11:41:15.740Z,4.15
2022-11-21T11:42:16.934Z,4.4
2022-11-21T11:43:15.724Z,4.35
2022-11-21T11:44:15.712Z,4.35
2022-11-21T11:45:15.714Z,4.51
2022-11-21T11:46:15.711Z,4.43
2022-11-21T11:47:15.715Z,4.24
2022-11-21T11:48:15.755Z,4.48
2022-11-21T11:49:21.221Z,4.52
2022-11-21T11:50:15.826Z,4.62
2022-11-21T11:51:15.719Z,4.61
2022-11-21T11:52:15.717Z,4.49
2022-11-21T11:53:15.755Z,4.42
2022-11-21T11:54:15.714Z,4.45
2022-11-21T11:55:15.714Z,4.16
2022-11-21T11:56:15.718Z,3.9
2022-11-21T11:57:15.714Z,3.86
2022-11-21T11:58:15.755Z,3.6
2022-11-21T11:59:15.723Z,3.61
2022-11-21T12:00:15.726Z,3.63
2022-11-21T12:01:15.718Z,3.71
2022-11-21T12:02:15.762Z,3.47
2022-11-21T12:03:15.740Z,3.43
2022-11-21T12:04:15.711Z,3.59
2022-11-21T12:05:15.727Z,3.9
2022-11-21T12:06:15.727Z,3.88
2022-11-21T12:08:19.885Z,3.77
2022-11-21T12:08:42.240Z,3.91
2022-11-21T12:09:15.865Z,3.93
2022-11-21T12:10:15.754Z,3.81
2022-11-21T12:11:15.740Z,4.07
2022-11-21T12:12:15.740Z,4.21
2022-11-21T12:13:15.738Z,4.15
2022-11-21T12:14:15.736Z,4.19
2022-11-21T12:15:15.740Z,4.35
2022-11-21T12:16:15.732Z,4.35
2022-11-21T12:17:15.746Z,4.22
2022-11-21T12:18:15.744Z,4.18
2022-11-21T12:19:15.731Z,4.09
2022-11-21T12:20:15.747Z,4.14
2022-11-21T12:21:15.722Z,4.28
2022-11-21T12:22:15.734Z,4.11
2022-11-21T12:23:15.740Z,4.02
2022-11-21T12:24:15.738Z,3.92
2022-11-21T12:25:15.732Z,3.59
2022-11-21T12:26:15.728Z,3.63
2022-11-21T12:27:15.740Z,3.7
2022-11-21T12:28:15.746Z,3.59
2022-11-21T12:29:15.725Z,3.67
2022-11-21T12:30:15.720Z,3.72
2022-11-21T12:31:15.735Z,3.83
2022-11-21T12:32:15.725Z,4.09
2022-11-21T12:33:15.746Z,4.2
2022-11-21T12:34:15.733Z,4.19
2022-11-21T12:35:15.736Z,4.02
2022-11-21T12:36:18.322Z,4.17
2022-11-21T12:37:15.730Z,4.13
2022-11-21T12:38:15.740Z,3.95
2022-11-21T12:39:15.728Z,3.92
2022-11-21T12:40:15.729Z,3.92
2022-11-21T12:41:15.730Z,3.84
2022-11-21T12:42:15.724Z,3.88
2022-11-21T12:43:15.740Z,3.96
2022-11-21T12:44:15.736Z,4.06
2022-11-21T12:45:15.721Z,4.18
2022-11-21T12:46:15.992Z,4.28
2022-11-21T12:47:15.736Z,4.24
2022-11-21T12:48:15.723Z,4.24
2022-11-21T12:49:15.722Z,4.22
2022-11-21T12:50:15.720Z,4.21
2022-11-21T12:51:15.819Z,3.88
2022-11-21T12:52:15.739Z,4.1
2022-11-21T12:53:15.745Z,4.51
2022-11-21T12:54:15.769Z,4.59
2022-11-21T12:55:15.709Z,4.52
2022-11-21T12:56:15.727Z,4.54
2022-11-21T12:57:15.725Z,4.5
2022-11-21T12:58:15.748Z,4.57
2022-11-21T12:59:15.716Z,4.7
2022-11-21T13:00:15.724Z,4.68
2022-11-21T13:01:20.855Z,4.88
2022-11-21T13:02:15.722Z,5.05
2022-11-21T13:03:15.752Z,5.2
2022-11-21T13:04:15.723Z,5.22
2022-11-21T13:05:15.718Z,5.39
2022-11-21T13:06:15.716Z,5.15
2022-11-21T13:07:15.759Z,5.13
2022-11-21T13:08:19.919Z,5.47
2022-11-21T13:09:15.716Z,5.47
2022-11-21T13:10:15.721Z,5.43
2022-11-21T13:11:15.719Z,5.56
2022-11-21T13:12:15.710Z,5.61
2022-11-21T13:13:15.724Z,5.95
2022-11-21T13:14:15.715Z,5.17
2022-11-21T13:15:15.732Z,4.91
2022-11-21T13:16:15.720Z,4.77
2022-11-21T13:17:15.741Z,4.67
2022-11-21T13:18:15.738Z,4.53
2022-11-21T13:19:15.728Z,4.84
2022-11-21T13:20:15.725Z,4.72
2022-11-21T13:21:15.736Z,4.71